Time;durP1;ratioP1;P1;durP2;ratioP2;P2;SDS_P1;SDS_P2;PMS_P1;PMS_P2;Temp;Humidity;BMP_temperature;BMP_pressure;BME280_temperature;BME280_humidity;BME280_pressure;Samples;Min_cycle;Max_cycle;Signal;HPM_P1;HPM_P2
2022/06/13 00:00:13;;;;;;;9.15;3.63;;;13.30;99.90;;;;;;5122209;27;20490;-73
2022/06/13 00:02:39;;;;;;;8.45;4.68;;;12.70;99.90;;;;;;5125313;27;20031;-73
2022/06/13 00:05:05;;;;;;;;;;;12.70;99.90;;;;;;5127210;27;20047;-73
2022/06/13 00:07:31;;;;;;;8.85;4.50;;;12.70;99.90;;;;;;5123830;27;19961;-73
2022/06/13 00:09:57;;;;;;;9.80;4.07;;;12.70;99.90;;;;;;5123663;27;20039;-73
2022/06/13 00:12:23;;;;;;;;;;;12.70;99.90;;;;;;5145766;27;20035;-73
2022/06/13 00:14:49;;;;;;;10.97;4.60;;;13.10;99.90;;;;;;5128316;27;19930;-73
2022/06/13 00:17:14;;;;;;;;;;;13.10;99.90;;;;;;5143886;27;20276;-73
2022/06/13 00:19:40;;;;;;;8.52;4.13;;;12.80;99.90;;;;;;5144506;27;19918;-73
2022/06/13 00:22:06;;;;;;;;;;;13.00;99.90;;;;;;5125538;27;20065;-73
2022/06/13 00:24:33;;;;;;;10.90;4.07;;;12.80;99.90;;;;;;5122486;27;19926;-73
2022/06/13 00:26:58;;;;;;;7.15;3.50;;;12.80;99.90;;;;;;5122321;27;20043;-72
2022/06/13 00:29:24;;;;;;;;;;;12.80;99.90;;;;;;5125930;27;20043;-72
2022/06/13 00:31:50;;;;;;;7.20;3.28;;;12.80;99.90;;;;;;5123744;27;19926;-73
2022/06/13 00:34:15;;;;;;;;;;;12.90;99.90;;;;;;5122499;27;20051;-73
2022/06/13 00:36:41;;;;;;;7.68;3.42;;;12.90;99.90;;;;;;5143318;27;19949;-73
2022/06/13 00:39:06;;;;;;;;;;;12.90;99.90;;;;;;5121347;28;20061;-73
2022/06/13 00:41:36;;;;;;;7.15;3.10;;;13.00;99.90;;;;;;5125372;27;19923;-73
2022/06/13 00:44:18;;;;;;;8.30;2.30;;;13.00;99.90;;;;;;5140611;27;20533;-73
2022/06/13 00:46:48;;;;;;;6.43;2.60;;;13.00;99.90;;;;;;5141200;27;20478;-73
2022/06/13 00:49:28;;;;;;;10.55;2.97;;;13.00;99.90;;;;;;5147023;27;20054;-73
2022/06/13 00:52:17;;;;;;;7.25;2.88;;;13.10;99.90;;;;;;5128630;27;20167;-73
2022/06/13 00:54:44;;;;;;;5.35;2.60;;;13.10;99.90;;;;;;5125772;27;20094;-73
2022/06/13 00:57:17;;;;;;;7.43;2.90;;;13.20;99.90;;;;;;5130370;27;20118;-73
2022/06/13 00:59:44;;;;;;;8.38;2.35;;;13.20;99.90;;;;;;5126287;27;20155;-73
2022/06/13 01:02:10;;;;;;;7.35;2.78;;;13.30;99.90;;;;;;5128402;27;20394;-73
2022/06/13 01:04:36;;;;;;;;;;;13.30;99.90;;;;;;5144220;27;20470;-73
2022/06/13 01:07:03;;;;;;;7.88;2.88;;;13.30;99.90;;;;;;5129206;27;19923;-73
2022/06/13 01:12:14;;;;;;;7.20;2.53;;;13.40;99.90;;;;;;5128596;27;20130;-73
2022/06/13 01:15:07;;;;;;;7.80;2.72;;;14.00;99.90;;;;;;5145801;27;20508;-73
2022/06/13 01:17:59;;;;;;;6.82;2.72;;;13.40;99.90;;;;;;5144930;27;20411;-73
2022/06/13 01:21:12;;;;;;;7.20;2.22;;;13.40;99.90;;;;;;5146433;27;20049;-73
2022/06/13 01:23:51;;;;;;;7.78;2.67;;;13.50;99.90;;;;;;5071569;28;20040;-73
2022/06/13 01:26:39;;;;;;;7.55;2.60;;;13.50;99.90;;;;;;5054969;28;20041;-73
2022/06/13 01:29:34;;;;;;;5.72;2.53;;;13.60;99.90;;;;;;5110031;27;20536;-73
2022/06/13 01:32:29;;;;;;;7.28;2.55;;;13.60;99.90;;;;;;5110310;27;20057;-73
2022/06/13 01:35:10;;;;;;;6.20;2.45;;;13.70;99.90;;;;;;5123880;27;20047;-73
2022/06/13 01:37:49;;;;;;;8.75;3.08;;;13.70;99.90;;;;;;5144489;27;20043;-73
2022/06/13 01:40:35;;;;;;;5.75;2.30;;;13.70;99.90;;;;;;5144731;27;20038;-73
2022/06/13 01:43:27;;;;;;;10.88;2.80;;;13.80;99.90;;;;;;5124274;27;20055;-73
2022/06/13 01:46:27;;;;;;;5.80;2.85;;;13.80;99.90;;;;;;5143336;27;20081;-72
2022/06/13 01:49:05;;;;;;;5.90;2.53;;;13.90;99.90;;;;;;5124026;27;20130;-73
2022/06/13 01:51:59;;;;;;;6.72;2.40;;;13.90;99.90;;;;;;5124969;27;20482;-72
2022/06/13 01:54:58;;;;;;;5.40;2.58;;;13.90;99.90;;;;;;5143550;27;20091;-73
2022/06/13 01:57:38;;;;;;;7.18;1.90;;;13.90;99.90;;;;;;5142327;27;20072;-73
2022/06/13 02:00:10;;;;;;;7.10;2.20;;;13.90;99.90;;;;;;5124113;27;20047;-73
2022/06/13 02:03:17;;;;;;;3.92;2.10;;;13.90;99.90;;;;;;5126169;27;20035;-73
2022/06/13 02:05:55;;;;;;;6.57;2.33;;;14.00;99.90;;;;;;5127742;27;20075;-73
2022/06/13 02:08:26;;;;;;;6.25;2.13;;;14.00;99.90;;;;;;5142654;27;20047;-73
2022/06/13 02:11:05;;;;;;;6.90;2.13;;;14.00;99.90;;;;;;5142561;27;20053;-73
2022/06/13 02:13:42;;;;;;;6.03;2.60;;;14.00;99.90;;;;;;5146914;27;20042;-73
2022/06/13 02:16:14;;;;;;;5.70;2.55;;;14.10;99.90;;;;;;5126146;27;20430;-73
2022/06/13 02:19:08;;;;;;;5.82;2.22;;;14.00;99.90;;;;;;5125384;27;20555;-73
2022/06/13 02:21:42;;;;;;;6.55;2.38;;;14.00;99.90;;;;;;5124618;27;20050;-73
2022/06/13 02:24:13;;;;;;;10.35;2.55;;;14.20;99.90;;;;;;5144476;27;20038;-73
2022/06/13 02:26:40;;;;;;;9.93;2.85;;;14.10;99.90;;;;;;5126340;27;20390;-72
2022/06/13 02:29:17;;;;;;;8.70;2.92;;;13.90;99.90;;;;;;5143783;27;20051;-73
2022/06/13 02:31:52;;;;;;;6.93;2.80;;;14.00;99.90;;;;;;5125981;27;20038;-73
2022/06/13 02:34:25;;;;;;;9.23;2.80;;;14.00;99.90;;;;;;5123739;27;20046;-73
2022/06/13 02:37:17;;;;;;;5.25;2.60;;;14.00;99.90;;;;;;5123567;27;20039;-73
2022/06/13 02:39:51;;;;;;;10.30;2.90;;;14.00;99.90;;;;;;5113550;27;20085;-73
2022/06/13 02:42:20;;;;;;;7.78;3.05;;;13.90;99.90;;;;;;5123628;27;20382;-73
2022/06/13 02:44:48;;;;;;;4.65;2.20;;;13.90;99.90;;;;;;5141345;27;20052;-73
2022/06/13 02:47:27;;;;;;;5.22;2.15;;;14.20;99.90;;;;;;5126260;27;20126;-73
2022/06/13 02:50:05;;;;;;;4.85;1.90;;;13.90;99.90;;;;;;5142777;27;20051;-72
2022/06/13 02:52:39;;;;;;;6.13;1.92;;;13.80;99.90;;;;;;5124590;27;20546;-72
2022/06/13 02:55:10;;;;;;;6.25;2.22;;;13.70;99.90;;;;;;5143837;27;20069;-73
2022/06/13 02:58:14;;;;;;;4.90;1.58;;;13.80;99.90;;;;;;5127398;27;20047;-73
2022/06/13 03:01:21;;;;;;;4.68;1.70;;;13.70;99.90;;;;;;5134888;27;20122;-72
2022/06/13 03:04:25;;;;;;;6.45;1.85;;;13.70;99.90;;;;;;5112980;27;20394;-73
2022/06/13 03:07:18;;;;;;;6.90;2.00;;;13.60;99.90;;;;;;5084976;27;20051;-73
2022/06/13 03:09:49;;;;;;;4.90;1.90;;;13.60;99.90;;;;;;5143349;27;20046;-73
2022/06/13 03:12:32;;;;;;;5.90;1.83;;;13.50;99.90;;;;;;5141001;27;20505;-72
2022/06/13 03:15:00;;;;;;;4.18;1.50;;;13.50;99.90;;;;;;5123824;27;20535;-73
2022/06/13 03:17:37;;;;;;;4.80;1.83;;;13.40;99.90;;;;;;5124311;27;20031;-73
2022/06/13 03:20:14;;;;;;;6.05;1.70;;;13.40;99.90;;;;;;5145514;27;20089;-73
2022/06/13 03:22:46;;;;;;;6.70;1.70;;;13.40;99.90;;;;;;5141317;27;20077;-73
2022/06/13 03:25:23;;;;;;;3.60;1.63;;;13.40;99.90;;;;;;5122644;27;20051;-73
2022/06/13 03:28:01;;;;;;;6.57;2.05;;;13.90;99.90;;;;;;5141573;27;20067;-73
2022/06/13 03:30:31;;;;;;;4.13;1.50;;;13.60;99.90;;;;;;5124564;27;20058;-73
2022/06/13 03:35:51;;;;;;;4.65;2.00;;;13.40;99.90;;;;;;5123088;27;20346;-72
2022/06/13 03:38:25;;;;;;;6.53;2.00;;;13.50;99.90;;;;;;5126894;27;20081;-73
2022/06/13 03:40:54;;;;;;;6.25;2.22;;;13.40;99.90;;;;;;5124610;27;20058;-73
2022/06/13 03:43:45;;;;;;;8.90;2.08;;;13.40;99.90;;;;;;5123771;27;20474;-73
2022/06/13 03:46:21;;;;;;;6.22;2.17;;;13.40;99.90;;;;;;5141021;27;20036;-73
2022/06/13 03:49:01;;;;;;;5.63;1.83;;;13.40;99.90;;;;;;5124000;27;20047;-73
2022/06/13 03:51:40;;;;;;;7.15;2.28;;;13.40;99.90;;;;;;5143274;27;20035;-73
2022/06/13 03:54:27;;;;;;;5.45;2.00;;;13.30;99.90;;;;;;5147746;27;20091;-73
2022/06/13 03:57:01;;;;;;;4.68;2.00;;;13.30;99.90;;;;;;5143175;27;20184;-73
2022/06/13 03:59:33;;;;;;;7.07;2.28;;;13.30;99.90;;;;;;5122654;27;20055;-73
2022/06/13 04:02:03;;;;;;;7.20;2.38;;;13.30;99.90;;;;;;5143891;27;20043;-73
2022/06/13 04:04:37;;;;;;;14.20;1.85;;;13.30;99.90;;;;;;5122646;27;20082;-73
2022/06/13 04:07:04;;;;;;;6.72;1.90;;;13.60;99.90;;;;;;5140670;27;20049;-73
2022/06/13 04:09:53;;;;;;;4.05;1.30;;;13.20;99.90;;;;;;5124841;27;20031;-73
2022/06/13 04:12:22;;;;;;;4.20;1.13;;;13.00;99.90;;;;;;5124413;27;20043;-73
2022/06/13 04:15:04;;;;;;;3.88;1.25;;;12.90;99.90;;;;;;5125660;27;20039;-73
2022/06/13 04:18:08;;;;;;;4.57;1.40;;;12.80;99.90;;;;;;5120881;28;20050;-73
2022/06/13 04:20:46;;;;;;;7.43;1.52;;;12.70;99.90;;;;;;5124419;27;20034;-73
2022/06/13 04:23:36;;;;;;;5.45;1.45;;;12.70;99.90;;;;;;5147244;27;20077;-73
2022/06/13 04:26:20;;;;;;;4.35;1.15;;;12.60;99.90;;;;;;5144702;27;20540;-73
2022/06/13 04:29:09;;;;;;;3.90;1.30;;;12.60;99.90;;;;;;5128246;27;20031;-72
2022/06/13 04:31:36;;;;;;;3.15;1.35;;;12.50;99.90;;;;;;5149082;27;20073;-72
2022/06/13 04:34:12;;;;;;;6.90;2.28;;;12.70;99.90;;;;;;5131283;27;20062;-73
2022/06/13 04:36:38;;;;;;;;;;;12.50;99.90;;;;;;5127124;27;20031;-72
2022/06/13 04:39:07;;;;;;;5.85;1.73;;;12.70;99.90;;;;;;5146851;27;19918;-72
2022/06/13 04:41:38;;;;;;;8.63;1.60;;;12.70;99.90;;;;;;5144598;27;20047;-73
2022/06/13 04:44:06;;;;;;;4.32;1.42;;;12.80;99.90;;;;;;5146891;27;20071;-72
2022/06/13 04:46:35;;;;;;;8.60;1.80;;;12.90;99.90;;;;;;5148944;27;20099;-73
2022/06/13 04:49:06;;;;;;;5.20;1.75;;;13.00;99.90;;;;;;5127093;27;20455;-73
2022/06/13 04:51:39;;;;;;;3.63;1.38;;;13.20;99.90;;;;;;5129211;27;20038;-73
2022/06/13 04:54:12;;;;;;;3.92;1.50;;;13.20;99.90;;;;;;5128256;27;20420;-73
2022/06/13 04:56:38;;;;;;;4.55;1.70;;;13.40;99.90;;;;;;5127374;27;20436;-73
2022/06/13 04:59:04;;;;;;;3.83;1.63;;;13.50;99.90;;;;;;5145896;27;20165;-73
2022/06/13 05:01:48;;;;;;;4.95;1.30;;;13.50;99.90;;;;;;5125623;27;20039;-73
2022/06/13 05:04:18;;;;;;;5.97;1.55;;;13.60;99.90;;;;;;5128364;27;20051;-73
2022/06/13 05:06:50;;;;;;;4.40;1.30;;;13.60;99.90;;;;;;5144185;27;20114;-73
2022/06/13 05:09:34;;;;;;;8.15;1.50;;;13.50;99.90;;;;;;5142776;27;20494;-72
2022/06/13 05:12:40;;;;;;;5.32;1.55;;;13.50;99.90;;;;;;5125507;27;20035;-72
2022/06/13 05:15:19;;;;;;;5.03;1.73;;;13.70;99.90;;;;;;5136636;27;20089;-72
2022/06/13 05:18:18;;;;;;;7.47;1.73;;;13.80;99.90;;;;;;5154265;27;20610;-71
2022/06/13 05:21:04;;;;;;;4.72;1.30;;;13.80;99.90;;;;;;5125099;27;20059;-70
2022/06/13 05:23:42;;;;;;;4.38;1.65;;;13.90;99.90;;;;;;5125506;27;20510;-71
2022/06/13 05:26:08;;;;;;;3.40;1.20;;;14.00;99.90;;;;;;5125703;27;20043;-73
2022/06/13 05:28:35;;;;;;;5.07;1.40;;;14.10;99.90;;;;;;5145112;27;20031;-73
2022/06/13 05:31:18;;;;;;;5.20;1.70;;;14.10;99.90;;;;;;5126821;27;20043;-71
2022/06/13 05:33:46;;;;;;;5.15;1.75;;;14.20;99.90;;;;;;5124877;27;20050;-76
2022/06/13 05:36:19;;;;;;;6.18;2.10;;;14.20;99.90;;;;;;5129357;27;20397;-73
2022/06/13 05:38:50;;;;;;;5.82;1.85;;;14.20;99.90;;;;;;5128708;27;20442;-77
2022/06/13 05:41:16;;;;;;;8.02;1.50;;;14.40;99.90;;;;;;5142487;27;20080;-74
2022/06/13 05:43:41;;;;;;;6.05;1.80;;;14.20;99.90;;;;;;5146413;27;20039;-73
2022/06/13 05:46:14;;;;;;;5.60;1.70;;;14.30;99.90;;;;;;5126702;27;20074;-70
2022/06/13 05:48:40;;;;;;;4.82;1.58;;;14.40;99.90;;;;;;5128419;27;20103;-79
2022/06/13 05:51:05;;;;;;;6.20;1.60;;;14.40;99.90;;;;;;5126145;27;20122;-77
2022/06/13 05:53:31;;;;;;;8.18;1.50;;;14.60;99.90;;;;;;5125678;27;20034;-74
2022/06/13 05:55:59;;;;;;;5.05;1.25;;;14.70;99.90;;;;;;5125360;27;20543;-75
2022/06/13 05:58:26;;;;;;;8.65;1.70;;;14.70;99.90;;;;;;5144740;27;20038;-77
2022/06/13 06:00:54;;;;;;;7.25;1.30;;;14.60;99.90;;;;;;5125008;27;20039;-79
2022/06/13 06:03:21;;;;;;;4.63;1.40;;;14.60;99.90;;;;;;5146913;27;20372;-77
2022/06/13 06:05:47;;;;;;;6.75;1.40;;;14.50;99.90;;;;;;5145489;27;20038;-71
2022/06/13 06:08:17;;;;;;;5.50;1.80;;;14.60;99.90;;;;;;5125646;27;20069;-70
2022/06/13 06:10:43;;;;;;;4.18;1.42;;;14.70;99.90;;;;;;5122996;27;20062;-72
2022/06/13 06:13:12;;;;;;;4.30;1.40;;;14.70;99.90;;;;;;5145392;27;20083;-73
2022/06/13 06:15:40;;;;;;;6.05;2.10;;;14.80;99.90;;;;;;5126864;27;20367;-71
2022/06/13 06:18:05;;;;;;;7.28;1.48;;;14.60;99.90;;;;;;5144785;27;20119;-73
2022/06/13 06:20:31;;;;;;;5.63;1.40;;;14.60;99.90;;;;;;5146089;27;20113;-71
2022/06/13 06:22:57;;;;;;;6.25;1.45;;;14.80;99.90;;;;;;5125467;27;20039;-72
2022/06/13 06:25:22;;;;;;;5.55;1.58;;;14.90;99.90;;;;;;5125891;27;20043;-75
2022/06/13 06:27:48;;;;;;;2.70;1.10;;;14.90;99.90;;;;;;5125310;27;20046;-74
2022/06/13 06:30:16;;;;;;;7.93;1.75;;;15.00;99.90;;;;;;5126364;27;20046;-73
2022/06/13 06:32:42;;;;;;;5.55;1.60;;;15.00;99.90;;;;;;5123608;27;20100;-73
2022/06/13 06:35:09;;;;;;;4.85;1.50;;;15.00;99.90;;;;;;5145799;27;20045;-72
2022/06/13 06:37:38;;;;;;;7.30;1.42;;;15.10;99.90;;;;;;5125040;27;20574;-72
2022/06/13 06:40:04;;;;;;;7.75;1.90;;;15.10;99.90;;;;;;5123107;27;20043;-72
2022/06/13 06:42:30;;;;;;;7.53;1.70;;;15.00;99.90;;;;;;5126750;27;20035;-77
2022/06/13 06:44:56;;;;;;;5.80;1.50;;;14.90;99.90;;;;;;5123901;27;20038;-73
2022/06/13 06:47:21;;;;;;;6.28;1.88;;;14.90;99.90;;;;;;5122988;27;20043;-76
2022/06/13 06:49:47;;;;;;;7.10;1.95;;;14.90;99.90;;;;;;5143167;27;20497;-74
2022/06/13 06:52:13;;;;;;;5.85;1.88;;;14.90;99.90;;;;;;5124970;27;20049;-70
2022/06/13 07:00:08;;;;;;;4.63;1.70;;;15.10;99.90;;;;;;5123604;27;20043;-71
2022/06/13 07:02:34;;;;;;;5.28;1.23;;;15.30;99.90;;;;;;5124067;27;20051;-69
2022/06/13 07:05:07;;;;;;;4.53;1.52;;;15.30;99.90;;;;;;5122281;27;20043;-69
2022/06/13 07:07:33;;;;;;;4.82;1.60;;;15.40;99.90;;;;;;5129563;27;20050;-70
2022/06/13 07:09:59;;;;;;;8.07;1.95;;;15.30;99.90;;;;;;5123212;27;20037;-70
2022/06/13 07:12:24;;;;;;;5.88;1.58;;;15.20;99.90;;;;;;5144504;27;20129;-70
2022/06/13 07:14:50;;;;;;;7.68;1.60;;;15.70;99.90;;;;;;5123958;27;20126;-71
2022/06/13 07:17:16;;;;;;;8.40;1.75;;;15.30;99.90;;;;;;5126079;27;20038;-71
2022/06/13 07:19:45;;;;;;;6.25;1.67;;;15.60;99.90;;;;;;5143709;27;20054;-70
2022/06/13 07:22:14;;;;;;;4.78;1.60;;;16.00;99.90;;;;;;5123221;27;20035;-70
2022/06/13 07:24:40;;;;;;;6.72;1.30;;;16.40;99.90;;;;;;5125546;27;20077;-70
2022/06/13 07:27:06;;;;;;;4.38;1.30;;;17.20;99.90;;;;;;5122333;27;20038;-71
2022/06/13 07:29:31;;;;;;;4.95;1.30;;;17.80;99.90;;;;;;5125689;27;20496;-70
2022/06/13 07:32:10;;;;;;;4.38;1.45;;;18.60;99.90;;;;;;5124769;27;20043;-70
2022/06/13 07:34:38;;;;;;;4.65;1.70;;;19.10;99.90;;;;;;5123128;27;20114;-70
2022/06/13 07:37:07;;;;;;;6.70;1.48;;;19.70;99.90;;;;;;5125166;27;20166;-71
2022/06/13 07:39:32;;;;;;;5.30;1.40;;;20.00;99.90;;;;;;5141834;27;20075;-71
2022/06/13 07:41:59;;;;;;;3.88;1.20;;;19.80;99.90;;;;;;5125663;27;20122;-72
2022/06/13 07:44:36;;;;;;;4.32;1.40;;;20.10;99.90;;;;;;5126974;27;20034;-72
2022/06/13 07:47:02;;;;;;;4.95;1.73;;;20.50;99.90;;;;;;5122217;27;20043;-72
2022/06/13 07:49:28;;;;;;;5.82;1.38;;;20.80;99.90;;;;;;5143883;27;20501;-72
2022/06/13 07:51:54;;;;;;;6.85;1.50;;;20.70;99.90;;;;;;5122007;27;20031;-73
2022/06/13 07:54:19;;;;;;;5.22;1.42;;;20.60;99.90;;;;;;5124633;27;20039;-72
2022/06/13 07:56:45;;;;;;;4.30;1.33;;;20.70;99.30;;;;;;5144705;27;20066;-73
2022/06/13 07:59:17;;;;;;;7.55;1.85;;;20.80;99.10;;;;;;5123804;27;20390;-74
2022/06/13 08:01:44;;;;;;;7.13;1.55;;;21.30;98.10;;;;;;5144381;27;20515;-71
2022/06/13 08:04:10;;;;;;;7.35;1.80;;;21.60;98.30;;;;;;5142395;27;20052;-73
2022/06/13 08:06:41;;;;;;;8.13;1.50;;;21.70;98.20;;;;;;5125899;27;20122;-72
2022/06/13 08:09:07;;;;;;;6.85;1.77;;;21.20;98.10;;;;;;5122547;27;20047;-72
2022/06/13 08:11:35;;;;;;;4.82;1.30;;;21.10;98.50;;;;;;5123158;27;20042;-73
2022/06/13 08:14:01;;;;;;;5.65;1.48;;;20.90;98.00;;;;;;5140890;27;20113;-72
2022/06/13 08:16:27;;;;;;;6.07;1.38;;;20.90;97.10;;;;;;5142816;27;20497;-73
2022/06/13 08:18:53;;;;;;;7.20;1.88;;;21.10;97.70;;;;;;5121676;28;20051;-72
2022/06/13 08:21:19;;;;;;;5.35;1.30;;;21.20;97.60;;;;;;5121604;28;20115;-72
2022/06/13 08:23:45;;;;;;;4.93;1.40;;;21.20;97.70;;;;;;5124834;27;20367;-72
2022/06/13 08:26:13;;;;;;;6.45;1.60;;;21.10;98.40;;;;;;5122410;27;20126;-72
2022/06/13 08:28:39;;;;;;;6.40;1.38;;;20.60;97.40;;;;;;5142136;27;20064;-72
2022/06/13 08:31:09;;;;;;;4.90;1.30;;;20.50;98.30;;;;;;5123359;27;20039;-72
2022/06/13 08:33:36;;;;;;;7.63;1.98;;;20.20;97.40;;;;;;5125372;27;20126;-72
2022/06/13 08:36:01;;;;;;;6.78;1.58;;;20.30;98.10;;;;;;5142079;27;20053;-72
2022/06/13 08:38:27;;;;;;;6.65;1.80;;;20.50;98.60;;;;;;5140684;27;20482;-72
2022/06/13 08:41:11;;;;;;;5.43;1.58;;;20.70;99.00;;;;;;5125222;27;20035;-72
2022/06/13 08:43:55;;;;;;;5.90;1.45;;;21.30;97.40;;;;;;5122501;27;20043;-72
2022/06/13 08:46:28;;;;;;;6.18;1.70;;;21.70;97.60;;;;;;5121699;27;20039;-70
2022/06/13 08:49:04;;;;;;;6.50;1.83;;;22.30;96.30;;;;;;5121076;28;20142;-73
2022/06/13 08:51:56;;;;;;;4.88;1.48;;;22.70;96.10;;;;;;5119681;28;20364;-73
2022/06/13 08:54:30;;;;;;;6.00;1.95;;;22.90;95.20;;;;;;5119705;28;20040;-72
2022/06/13 08:56:56;;;;;;;5.85;1.40;;;23.10;95.10;;;;;;5121160;28;20138;-72
2022/06/13 08:59:34;;;;;;;4.32;1.30;;;22.90;95.40;;;;;;5120347;28;20215;-72
2022/06/13 09:02:20;;;;;;;6.68;1.48;;;22.40;95.60;;;;;;5119584;28;20046;-72
2022/06/13 09:04:53;;;;;;;5.88;1.55;;;21.70;95.00;;;;;;5118890;28;20051;-72
2022/06/13 09:07:36;;;;;;;5.07;1.50;;;21.10;96.20;;;;;;5120866;28;20035;-72
2022/06/13 09:10:31;;;;;;;7.75;1.95;;;20.40;96.90;;;;;;5124204;27;20367;-72
2022/06/13 09:13:07;;;;;;;4.38;1.30;;;19.90;97.80;;;;;;5124676;27;20041;-72
2022/06/13 09:15:43;;;;;;;7.53;1.73;;;20.00;98.00;;;;;;5127873;27;20038;-72
2022/06/13 09:18:56;;;;;;;6.60;1.48;;;20.90;98.10;;;;;;5121651;27;20035;-72
2022/06/13 09:21:48;;;;;;;3.75;1.20;;;21.40;97.50;;;;;;5076830;27;20067;-72
2022/06/13 09:24:23;;;;;;;5.45;1.80;;;20.80;97.20;;;;;;5120197;27;20049;-72
2022/06/13 09:26:57;;;;;;;4.85;1.70;;;20.30;98.00;;;;;;5124975;27;20432;-72
2022/06/13 09:29:35;;;;;;;4.55;1.67;;;20.40;98.50;;;;;;5122931;27;20130;-73
2022/06/13 09:32:09;;;;;;;7.03;1.70;;;20.30;98.70;;;;;;5122404;27;20035;-72
2022/06/13 09:34:46;;;;;;;5.15;1.33;;;20.60;98.80;;;;;;5126540;27;20084;-72
2022/06/13 09:37:27;;;;;;;5.57;1.50;;;21.40;98.30;;;;;;5121824;27;20043;-72
2022/06/13 09:39:53;;;;;;;7.20;1.85;;;22.00;97.10;;;;;;5124387;27;20048;-72
2022/06/13 09:42:40;;;;;;;6.90;1.50;;;21.70;96.80;;;;;;5125210;27;20572;-73
2022/06/13 09:45:29;;;;;;;4.20;1.50;;;21.00;97.20;;;;;;5122790;27;20039;-72
2022/06/13 09:48:15;;;;;;;5.25;1.65;;;20.40;97.90;;;;;;5110736;27;20048;-72
2022/06/13 09:51:18;;;;;;;7.00;1.58;;;20.10;98.00;;;;;;5103428;28;20078;-72
2022/06/13 09:53:48;;;;;;;5.82;1.52;;;20.40;97.80;;;;;;5126428;27;20047;-72
2022/06/13 09:56:28;;;;;;;5.07;1.50;;;20.60;97.80;;;;;;5102746;28;20077;-73
2022/06/13 09:59:06;;;;;;;5.22;1.50;;;20.60;97.40;;;;;;5103222;28;20048;-72
2022/06/13 10:01:43;;;;;;;6.22;1.80;;;20.30;97.60;;;;;;5103764;28;20483;-72
2022/06/13 10:04:20;;;;;;;7.72;1.77;;;20.00;97.20;;;;;;5100098;28;20048;-72
2022/06/13 10:06:56;;;;;;;4.72;1.27;;;19.90;98.00;;;;;;5103288;28;20089;-72
2022/06/13 10:09:50;;;;;;;4.75;1.70;;;20.30;97.90;;;;;;5100487;28;20096;-72
2022/06/13 10:12:54;;;;;;;6.32;1.88;;;20.60;98.20;;;;;;5103905;28;20044;-72
2022/06/13 10:15:50;;;;;;;6.57;1.75;;;20.20;97.70;;;;;;5100058;28;20102;-72
2022/06/13 10:18:38;;;;;;;4.78;1.77;;;20.10;97.70;;;;;;5098891;28;20813;-73
2022/06/13 10:21:26;;;;;;;7.25;1.80;;;19.80;97.80;;;;;;5102378;28;20040;-72
2022/06/13 10:24:17;;;;;;;6.65;1.85;;;20.30;97.10;;;;;;5104117;28;20044;-72
2022/06/13 10:26:52;;;;;;;6.47;1.92;;;20.70;96.50;;;;;;5101964;28;20051;-72
2022/06/13 10:29:39;;;;;;;7.38;1.88;;;20.90;96.70;;;;;;5100240;28;20051;-72
2022/06/13 10:32:34;;;;;;;5.70;1.73;;;20.70;96.40;;;;;;5106738;28;20651;-71
2022/06/13 10:35:13;;;;;;;5.80;1.98;;;20.70;96.80;;;;;;5098409;28;20040;-71
2022/06/13 10:38:06;;;;;;;7.03;1.80;;;21.00;97.50;;;;;;5101376;28;20051;-73
2022/06/13 10:40:32;;;;;;;6.60;1.63;;;21.10;95.60;;;;;;5101146;28;20487;-73
2022/06/13 10:42:59;;;;;;;6.47;1.80;;;21.50;96.80;;;;;;5100259;28;20036;-73
2022/06/13 10:45:24;;;;;;;8.65;1.95;;;21.90;96.40;;;;;;5099816;28;20569;-75
2022/06/13 10:48:17;;;;;;;9.57;2.60;;;21.90;96.30;;;;;;5129917;27;20070;-76
2022/06/13 10:50:51;;;;;;;7.05;2.55;;;21.20;96.60;;;;;;5147234;27;20047;-73
2022/06/13 10:53:27;;;;;;;8.27;1.90;;;20.80;98.00;;;;;;5126998;27;20467;-76
2022/06/13 10:55:57;;;;;;;7.22;2.13;;;20.50;98.20;;;;;;5124360;27;20153;-71
2022/06/13 10:58:33;;;;;;;6.93;1.75;;;20.00;98.50;;;;;;5149985;27;20047;-73
2022/06/13 11:01:09;;;;;;;;;;;19.80;98.30;;;;;;5142064;27;20047;-79
2022/06/13 11:03:36;;;;;;;6.13;1.95;;;19.30;98.50;;;;;;5146827;27;19987;-72
2022/06/13 11:06:12;;;;;;;7.78;1.80;;;19.60;99.90;;;;;;5149039;27;20114;-75
2022/06/13 11:08:38;;;;;;;6.82;2.00;;;20.20;99.30;;;;;;5146449;27;20390;-75
2022/06/13 11:11:13;;;;;;;9.35;2.20;;;20.40;98.10;;;;;;5143159;27;20039;-76
2022/06/13 11:13:40;;;;;;;5.07;1.45;;;20.20;98.10;;;;;;5127681;27;20080;-73
2022/06/13 11:25:15;;;;;;;8.80;2.00;;;22.50;96.50;;;;;;5129425;27;20088;-74
2022/06/13 11:27:41;;;;;;;6.20;1.50;;;22.20;95.10;;;;;;5093526;27;20281;-74
2022/06/13 11:30:26;;;;;;;5.60;1.60;;;21.80;95.90;;;;;;5126275;27;20051;-77
2022/06/13 11:33:05;;;;;;;4.57;1.35;;;21.60;95.80;;;;;;5126509;27;20439;-76
2022/06/13 11:35:49;;;;;;;6.13;1.70;;;22.00;96.30;;;;;;5118634;27;20035;-77
2022/06/13 11:38:20;;;;;;;6.57;2.15;;;21.60;95.70;;;;;;5128390;27;20117;-81
2022/06/13 11:41:03;;;;;;;6.85;1.50;;;21.70;95.20;;;;;;5149026;27;20154;-79
2022/06/13 11:43:34;;;;;;;4.43;1.48;;;21.60;95.70;;;;;;5130465;27;20046;-83
2022/06/13 11:46:03;;;;;;;5.07;1.63;;;21.90;94.90;;;;;;5130646;27;20058;-86
2022/06/13 11:48:30;;;;;;;5.63;1.50;;;21.50;95.10;;;;;;5147977;27;20054;-75
2022/06/13 11:50:58;;;;;;;5.35;1.50;;;21.60;95.80;;;;;;5130502;27;20054;-72
2022/06/13 11:53:37;;;;;;;5.28;1.75;;;21.40;95.60;;;;;;5128977;27;20047;-72
2022/06/13 11:56:09;;;;;;;6.60;1.95;;;21.40;96.30;;;;;;5142010;27;20103;-70
2022/06/13 11:58:40;;;;;;;5.03;1.50;;;21.80;96.90;;;;;;5147123;27;20136;-72
2022/06/13 12:01:20;;;;;;;5.55;1.73;;;21.90;95.50;;;;;;5127570;27;20051;-71
2022/06/13 12:04:12;;;;;;;7.85;2.00;;;21.60;95.60;;;;;;5130597;27;20054;-73
2022/06/13 12:06:57;;;;;;;6.47;1.70;;;20.90;96.10;;;;;;5142241;27;20043;-70
2022/06/13 12:09:30;;;;;;;5.43;1.50;;;20.70;96.90;;;;;;5126813;27;20489;-67
2022/06/13 12:12:06;;;;;;;5.68;1.40;;;20.80;97.40;;;;;;5124784;27;20053;-73
2022/06/13 12:14:42;;;;;;;4.93;1.27;;;21.30;97.50;;;;;;5121234;27;20035;-65
2022/06/13 12:17:10;;;;;;;;;;;21.70;95.90;;;;;;5126527;27;20048;-65
2022/06/13 12:20:00;;;;;;;6.10;1.50;;;21.70;96.60;;;;;;5120723;27;20018;-65
2022/06/13 12:22:44;;;;;;;5.63;1.45;;;21.60;95.30;;;;;;5117394;27;20106;-68
2022/06/13 12:25:26;;;;;;;5.20;1.40;;;21.40;95.10;;;;;;5124354;27;20047;-66
2022/06/13 12:28:11;;;;;;;4.45;1.50;;;21.10;95.80;;;;;;5123017;27;20482;-66
2022/06/13 12:30:49;;;;;;;4.97;1.52;;;21.00;96.30;;;;;;5139797;27;20522;-66
2022/06/13 12:33:18;;;;;;;5.45;1.30;;;20.60;96.30;;;;;;5126966;27;20047;-66
2022/06/13 12:36:06;;;;;;;4.18;1.20;;;20.30;96.30;;;;;;5128787;27;20074;-68
2022/06/13 12:38:31;;;;;;;8.10;1.70;;;20.20;96.70;;;;;;5124754;27;20107;-67
2022/06/13 12:41:29;;;;;;;4.43;1.52;;;20.00;96.30;;;;;;5126598;27;20490;-71
2022/06/13 12:44:16;;;;;;;5.10;1.20;;;20.40;97.10;;;;;;5124321;27;20058;-66
2022/06/13 12:46:57;;;;;;;4.15;1.30;;;20.50;96.90;;;;;;5128581;27;20172;-69
2022/06/13 12:50:14;;;;;;;6.22;1.95;;;20.50;96.30;;;;;;5144619;27;20035;-69
2022/06/13 12:52:43;;;;;;;5.38;1.65;;;20.30;96.50;;;;;;5086921;27;20511;-68
2022/06/13 12:55:25;;;;;;;5.47;1.42;;;20.20;96.30;;;;;;5129014;27;20066;-69
2022/06/13 12:57:58;;;;;;;4.03;1.33;;;20.20;97.30;;;;;;5126707;27;20085;-65
2022/06/13 13:00:50;;;;;;;7.50;1.70;;;20.70;96.80;;;;;;5129351;27;20034;-67
2022/06/13 13:03:25;;;;;;;4.72;1.42;;;21.30;96.60;;;;;;5103429;27;20059;-67
2022/06/13 13:06:08;;;;;;;5.90;1.40;;;21.20;96.70;;;;;;5123337;27;20085;-66
2022/06/13 13:08:41;;;;;;;4.80;1.33;;;21.20;96.00;;;;;;5129905;27;20466;-65
2022/06/13 13:11:23;;;;;;;3.25;1.27;;;21.00;94.90;;;;;;5134038;27;20440;-66
2022/06/13 13:14:26;;;;;;;3.92;1.33;;;21.00;96.00;;;;;;5132204;27;20043;-71
2022/06/13 13:17:07;;;;;;;3.70;1.15;;;21.40;96.20;;;;;;5126622;27;20047;-63
2022/06/13 13:19:52;;;;;;;4.07;1.20;;;21.60;95.40;;;;;;5131427;27;20049;-68
2022/06/13 13:22:49;;;;;;;3.42;1.20;;;21.70;95.00;;;;;;5130933;27;20039;-67
2022/06/13 13:25:27;;;;;;;2.67;0.95;;;21.40;94.90;;;;;;5144846;27;20073;-67
2022/06/13 13:28:19;;;;;;;4.82;1.40;;;21.30;94.60;;;;;;5151177;27;20042;-67
2022/06/13 13:31:28;;;;;;;4.50;1.30;;;21.10;94.60;;;;;;5139694;27;20079;-69
2022/06/13 13:34:14;;;;;;;4.20;1.23;;;21.40;95.60;;;;;;5103914;27;20046;-67
2022/06/13 13:37:02;;;;;;;4.50;1.25;;;22.00;95.60;;;;;;5132447;27;20051;-70
2022/06/13 13:40:00;;;;;;;4.18;1.20;;;22.10;95.20;;;;;;5131493;27;20077;-69
2022/06/13 13:42:44;;;;;;;3.70;1.17;;;22.20;94.30;;;;;;5110533;27;20059;-69
2022/06/13 13:45:34;;;;;;;3.72;1.30;;;22.20;94.00;;;;;;5150184;27;20078;-67
2022/06/13 13:48:17;;;;;;;4.45;1.45;;;22.10;93.90;;;;;;5126913;27;20054;-66
2022/06/13 13:50:57;;;;;;;3.72;1.27;;;21.90;94.20;;;;;;5128394;27;20039;-67
2022/06/13 13:53:28;;;;;;;3.10;1.20;;;21.80;93.60;;;;;;5148738;27;20598;-66
2022/06/13 13:56:01;;;;;;;4.88;1.23;;;22.00;94.30;;;;;;5146801;27;20058;-67